createdAt,value
2019-04-01T00:02:26.396Z,7.5
2019-04-01T00:07:26.416Z,7.5
2019-04-01T00:12:26.424Z,7.5
2019-04-01T00:17:26.405Z,7.5
2019-04-01T00:22:26.432Z,7.5
2019-04-01T00:27:26.433Z,7.6
2019-04-01T00:32:26.430Z,7.6
2019-04-01T00:37:26.433Z,7.6
2019-04-01T00:42:26.437Z,7.5
2019-04-01T00:47:26.420Z,7.4
2019-04-01T00:52:26.427Z,7.3
2019-04-01T00:57:26.454Z,7.3
2019-04-01T01:02:26.450Z,7.4
2019-04-01T01:07:26.397Z,7.3
2019-04-01T01:12:26.448Z,7.3
2019-04-01T01:17:26.450Z,7.2
2019-04-01T01:22:26.470Z,7.2
2019-04-01T01:27:26.461Z,7.2
2019-04-01T01:32:26.456Z,7.3
2019-04-01T01:37:26.462Z,7.4
2019-04-01T01:42:26.473Z,7.6
2019-04-01T01:47:26.470Z,7.9
2019-04-01T01:52:26.459Z,7.9
2019-04-01T01:57:26.471Z,7.9
2019-04-01T02:02:26.482Z,7.7
2019-04-01T02:07:26.476Z,7.5
2019-04-01T02:12:26.497Z,7.4
2019-04-01T02:17:26.490Z,7.3
2019-04-01T02:22:26.493Z,7.2
2019-04-01T02:27:26.503Z,7.2
2019-04-01T02:32:26.436Z,7.1
2019-04-01T02:37:26.481Z,7.1
2019-04-01T02:42:26.507Z,7.1
2019-04-01T02:47:26.483Z,7.2
2019-04-01T02:52:26.491Z,7.4
2019-04-01T02:57:26.494Z,7.6
2019-04-01T03:02:26.501Z,7.8
2019-04-01T03:07:26.505Z,8
2019-04-01T03:12:26.515Z,8.1
2019-04-01T03:17:26.506Z,8.3
2019-04-01T03:22:26.526Z,8.4
2019-04-01T03:27:26.466Z,8.4
2019-04-01T03:32:26.525Z,8.5
2019-04-01T03:37:26.512Z,8.6
2019-04-01T03:42:26.501Z,8.7
2019-04-01T03:47:26.508Z,8.7
2019-04-01T03:52:26.537Z,8.8
2019-04-01T03:57:26.479Z,8.8
2019-04-01T04:02:26.525Z,8.8
2019-04-01T04:07:26.531Z,8.8
2019-04-01T04:12:26.533Z,8.8
2019-04-01T04:17:26.554Z,8.8
2019-04-01T04:22:26.569Z,8.7
2019-04-01T04:27:26.541Z,8.7
2019-04-01T04:32:26.564Z,8.6
2019-04-01T04:37:26.552Z,8.6
2019-04-01T04:42:26.566Z,8.5
2019-04-01T04:47:26.502Z,8.5
2019-04-01T04:52:26.572Z,8.4
2019-04-01T04:57:26.565Z,8.4
2019-04-01T05:02:26.579Z,8.3
2019-04-01T05:07:26.561Z,8.3
2019-04-01T05:12:26.561Z,8.3
2019-04-01T05:17:26.556Z,8.3
2019-04-01T05:22:26.572Z,8.2
2019-04-01T05:27:26.568Z,8.2
2019-04-01T05:32:26.566Z,8.2
2019-04-01T05:37:26.602Z,8.2
2019-04-01T05:42:26.592Z,8.2
2019-04-01T05:47:26.599Z,8.2
2019-04-01T05:52:26.584Z,8.2
2019-04-01T05:57:26.591Z,8.3
2019-04-01T06:02:26.603Z,8.3
2019-04-01T06:07:26.612Z,8.3
2019-04-01T06:12:26.597Z,8.2
2019-04-01T06:17:26.604Z,8.3
2019-04-01T06:22:26.597Z,8.4
2019-04-01T06:27:26.970Z,8.5
2019-04-01T06:32:26.624Z,8.6
2019-04-01T06:37:26.646Z,8.6
2019-04-01T06:42:26.575Z,8.5
2019-04-01T06:47:26.611Z,8.5
2019-04-01T06:52:26.603Z,8.4
2019-04-01T06:57:26.629Z,8.4
2019-04-01T07:02:26.576Z,8.4
2019-04-01T07:07:26.575Z,8.4
2019-04-01T07:12:26.632Z,8.3
2019-04-01T07:17:26.635Z,8.3
2019-04-01T07:22:26.644Z,8.3
2019-04-01T07:27:26.638Z,8.3
2019-04-01T07:32:26.640Z,8.4
2019-04-01T07:37:26.653Z,8.5
2019-04-01T07:42:28.881Z,8.7
2019-04-01T07:47:28.880Z,9
2019-04-01T07:52:28.885Z,9.3
2019-04-01T07:57:32.462Z,9.5
2019-04-01T08:02:28.897Z,9.7
2019-04-01T08:07:28.909Z,9.8
2019-04-01T08:12:28.893Z,9.9
2019-04-01T08:17:28.916Z,10.1
2019-04-01T08:22:28.885Z,10.2
2019-04-01T08:27:28.892Z,10.4
2019-04-01T08:32:28.901Z,10.5
2019-04-01T08:37:28.909Z,10.6
2019-04-01T08:42:28.905Z,10.6
2019-04-01T08:47:28.924Z,10.7
2019-04-01T08:52:28.925Z,11
2019-04-01T08:57:28.867Z,11.1
2019-04-01T09:02:28.937Z,11.1
2019-04-01T09:07:28.871Z,11.3
2019-04-01T09:12:28.928Z,11.3
2019-04-01T09:17:28.939Z,11.5
2019-04-01T09:22:28.952Z,11.6
2019-04-01T09:27:28.880Z,11.7
2019-04-01T09:32:28.923Z,11.7
2019-04-01T09:37:28.937Z,11.8
2019-04-01T09:42:29.008Z,12
2019-04-01T09:47:29.009Z,12.1
2019-04-01T09:52:29.029Z,12.2
2019-04-01T09:57:28.965Z,12.3
2019-04-01T10:02:31.911Z,12.4
2019-04-01T10:07:29.148Z,12.5
2019-04-01T10:12:29.023Z,12.6
2019-04-01T10:17:29.019Z,12.8
2019-04-01T10:22:29.027Z,12.9
2019-04-01T10:27:29.030Z,13
2019-04-01T10:32:29.038Z,13
2019-04-01T10:37:29.039Z,13.2
2019-04-01T10:42:29.035Z,13.3
2019-04-01T10:47:29.108Z,13.4
2019-04-01T10:52:29.009Z,13.6
2019-04-01T10:57:29.226Z,13.7
2019-04-01T11:02:29.095Z,13.9
2019-04-01T11:07:29.078Z,13.8
2019-04-01T11:12:29.059Z,14
2019-04-01T11:17:29.054Z,14.1
2019-04-01T11:22:29.099Z,14.3
2019-04-01T11:27:29.057Z,14.3
2019-04-01T11:32:29.119Z,14.3
2019-04-01T11:37:29.045Z,14.4
2019-04-01T11:42:29.083Z,14.5
2019-04-01T11:47:29.082Z,14.5
2019-04-01T11:52:29.105Z,14.6
2019-04-01T11:57:29.072Z,14.6
2019-04-01T12:02:29.075Z,14.6
2019-04-01T12:07:29.083Z,14.6
2019-04-01T12:12:29.078Z,14.7
2019-04-01T12:17:29.081Z,14.8
2019-04-01T12:22:29.088Z,14.9
2019-04-01T12:27:29.088Z,15
2019-04-01T12:32:29.087Z,15.1
2019-04-01T12:37:30.133Z,15.1
2019-04-01T12:42:29.102Z,15.1
2019-04-01T12:47:29.101Z,15.1
2019-04-01T12:52:29.051Z,15.1
2019-04-01T12:57:29.116Z,15.1
2019-04-01T13:02:29.110Z,15.3
2019-04-01T13:07:29.100Z,15.4
2019-04-01T13:12:29.095Z,15.3
2019-04-01T13:17:29.111Z,15.4
2019-04-01T13:22:29.117Z,15.5
2019-04-01T13:27:29.309Z,15.6
2019-04-01T13:32:29.073Z,15.5
2019-04-01T13:37:29.128Z,15.5
2019-04-01T13:42:29.125Z,15.5
2019-04-01T13:47:29.138Z,15.6
2019-04-01T13:52:29.122Z,15.6
2019-04-01T13:57:29.132Z,15.6
2019-04-01T14:02:30.980Z,15.6
2019-04-01T14:07:29.101Z,15.6
2019-04-01T14:12:29.148Z,15.6
2019-04-01T14:17:29.146Z,15.5
2019-04-01T14:22:29.152Z,15.5
2019-04-01T14:27:29.132Z,15.4
2019-04-01T14:32:29.153Z,15.3
2019-04-01T14:37:30.087Z,15.3
2019-04-01T14:42:29.185Z,15.3
2019-04-01T14:47:29.152Z,15.2
2019-04-01T14:52:32.482Z,15.2
2019-04-01T14:57:29.162Z,15.2
2019-04-01T15:02:29.184Z,15.2
2019-04-01T15:07:29.172Z,15.1
2019-04-01T15:12:29.173Z,15.1
2019-04-01T15:17:29.175Z,15
2019-04-01T15:22:29.243Z,14.9
2019-04-01T15:27:29.195Z,14.9
2019-04-01T15:32:29.189Z,14.8
2019-04-01T15:37:31.988Z,14.7
2019-04-01T15:42:29.240Z,14.6
2019-04-01T15:47:29.245Z,14.5
2019-04-01T15:52:29.193Z,14.5
2019-04-01T15:57:29.199Z,14.4
2019-04-01T16:02:29.215Z,14.3
2019-04-01T16:07:29.292Z,14.3
2019-04-01T16:12:29.228Z,14.2
2019-04-01T16:17:29.222Z,14.1
2019-04-01T16:22:29.169Z,14
2019-04-01T16:27:29.211Z,13.8
2019-04-01T16:32:29.374Z,13.7
2019-04-01T16:37:29.196Z,13.6
2019-04-01T16:42:29.202Z,13.5
2019-04-01T16:47:29.233Z,13.4
2019-04-01T16:52:29.514Z,13.3
2019-04-01T16:57:29.245Z,13.2
2019-04-01T17:02:29.247Z,13.1
2019-04-01T17:07:29.202Z,12.9
2019-04-01T17:12:29.246Z,12.8
2019-04-01T17:17:29.243Z,12.7
2019-04-01T17:22:29.279Z,12.6
2019-04-01T17:27:29.236Z,12.4
2019-04-01T17:32:29.291Z,12.3
2019-04-01T17:37:29.295Z,12.2
2019-04-01T17:42:29.260Z,12.1
2019-04-01T17:47:29.262Z,12
2019-04-01T17:52:29.332Z,11.9
2019-04-01T17:57:29.269Z,11.8
2019-04-01T18:02:29.281Z,11.7
2019-04-01T18:07:29.262Z,11.6
2019-04-01T18:12:29.259Z,11.5
2019-04-01T18:17:29.275Z,11.4
2019-04-01T18:22:29.399Z,11.3
2019-04-01T18:27:29.294Z,11.2
2019-04-01T18:32:31.016Z,11.2
2019-04-01T18:37:29.451Z,11.1
2019-04-01T18:42:31.097Z,11
2019-04-01T18:47:29.319Z,10.9
2019-04-01T18:52:29.320Z,10.8
2019-04-01T18:57:29.340Z,10.8
2019-04-01T19:02:29.282Z,10.7
2019-04-01T19:07:29.351Z,10.6
2019-04-01T19:12:29.376Z,10.6
2019-04-01T19:17:29.325Z,10.5
2019-04-01T19:22:29.352Z,10.5
2019-04-01T19:27:29.282Z,10.4
2019-04-01T19:32:29.334Z,10.3
2019-04-01T19:37:29.364Z,10.3
2019-04-01T19:42:29.365Z,10.2
2019-04-01T19:47:29.289Z,10.2
2019-04-01T19:52:29.342Z,10.1
2019-04-01T19:57:29.324Z,10.1
2019-04-01T20:02:29.311Z,10
2019-04-01T20:07:29.332Z,10
2019-04-01T20:12:29.349Z,10
2019-04-01T20:17:29.359Z,9.9
2019-04-01T20:22:29.345Z,9.9
2019-04-01T20:27:29.453Z,9.8
2019-04-01T20:32:29.366Z,9.8
2019-04-01T20:37:29.607Z,9.8
2019-04-01T20:42:29.347Z,9.7
2019-04-01T20:47:29.354Z,9.7
2019-04-01T20:52:29.308Z,9.6
2019-04-01T20:57:29.380Z,9.5
2019-04-01T21:02:29.348Z,9.5
2019-04-01T21:07:29.336Z,9.4
2019-04-01T21:12:29.376Z,9.4
2019-04-01T21:17:29.320Z,9.3
2019-04-01T21:22:29.355Z,9.3
2019-04-01T21:27:29.379Z,9.2
2019-04-01T21:32:29.380Z,9.1
2019-04-01T21:37:29.376Z,9.1
2019-04-01T21:42:29.383Z,9
2019-04-01T21:47:29.327Z,8.9
2019-04-01T21:52:29.377Z,8.9
2019-04-01T21:57:29.367Z,8.8
2019-04-01T22:02:35.684Z,8.7
2019-04-01T22:07:29.385Z,8.7
2019-04-01T22:12:29.380Z,8.6
2019-04-01T22:17:29.398Z,8.5
2019-04-01T22:22:29.381Z,8.5
2019-04-01T22:27:29.380Z,8.4
2019-04-01T22:32:29.406Z,8.3
2019-04-01T22:37:29.401Z,8.3
2019-04-01T22:42:29.402Z,8.2
2019-04-01T22:47:29.411Z,8.1
2019-04-01T22:52:29.417Z,8.1
2019-04-01T22:57:29.412Z,8
2019-04-01T23:02:29.412Z,8
2019-04-01T23:07:29.410Z,7.9
2019-04-01T23:12:29.414Z,7.8
2019-04-01T23:17:29.436Z,7.7
2019-04-01T23:22:29.688Z,7.7
2019-04-01T23:27:29.403Z,7.6
2019-04-01T23:32:29.426Z,7.6
2019-04-01T23:37:29.417Z,7.5
2019-04-01T23:42:29.427Z,7.5
2019-04-01T23:47:30.441Z,7.4
2019-04-01T23:52:29.444Z,7.4
2019-04-01T23:57:29.428Z,7.3
